sensor_id;sensor_type;location;lat;lon;timestamp;P1;durP1;ratioP1;P2;durP2;ratioP2
6434;SDS011;3250;42.694;23.278;2022-09-09T00:01:47;13.82;;;8.43;;
6434;SDS011;3250;42.694;23.278;2022-09-09T00:04:57;16.20;;;9.15;;
6434;SDS011;3250;42.694;23.278;2022-09-09T00:13:05;13.35;;;8.98;;
6434;SDS011;3250;42.694;23.278;2022-09-09T00:15:44;13.65;;;8.55;;
6434;SDS011;3250;42.694;23.278;2022-09-09T00:21:34;12.35;;;9.35;;
6434;SDS011;3250;42.694;23.278;2022-09-09T00:24:09;15.65;;;9.07;;
6434;SDS011;3250;42.694;23.278;2022-09-09T00:26:48;17.00;;;10.18;;
6434;SDS011;3250;42.694;23.278;2022-09-09T00:29:40;12.88;;;9.30;;
6434;SDS011;3250;42.694;23.278;2022-09-09T00:32:21;15.90;;;10.48;;
6434;SDS011;3250;42.694;23.278;2022-09-09T00:34:48;40.00;;;24.23;;
6434;SDS011;3250;42.694;23.278;2022-09-09T00:37:14;12.95;;;9.45;;
6434;SDS011;3250;42.694;23.278;2022-09-09T00:39:42;41.00;;;23.67;;
6434;SDS011;3250;42.694;23.278;2022-09-09T00:47:54;25.75;;;14.82;;
6434;SDS011;3250;42.694;23.278;2022-09-09T00:55:54;17.23;;;11.65;;
6434;SDS011;3250;42.694;23.278;2022-09-09T00:58:21;18.88;;;11.75;;
6434;SDS011;3250;42.694;23.278;2022-09-09T01:00:50;16.38;;;10.25;;
6434;SDS011;3250;42.694;23.278;2022-09-09T01:06:11;13.05;;;7.95;;
6434;SDS011;3250;42.694;23.278;2022-09-09T01:14:43;16.33;;;10.07;;
6434;SDS011;3250;42.694;23.278;2022-09-09T01:22:31;28.35;;;14.20;;
6434;SDS011;3250;42.694;23.278;2022-09-09T01:27:43;25.67;;;14.63;;
6434;SDS011;3250;42.694;23.278;2022-09-09T01:30:12;20.75;;;13.75;;
6434;SDS011;3250;42.694;23.278;2022-09-09T01:32:41;15.13;;;9.25;;
6434;SDS011;3250;42.694;23.278;2022-09-09T01:35:10;17.25;;;7.70;;
6434;SDS011;3250;42.694;23.278;2022-09-09T01:37:40;15.00;;;10.43;;
6434;SDS011;3250;42.694;23.278;2022-09-09T01:40:05;11.20;;;7.80;;
6434;SDS011;3250;42.694;23.278;2022-09-09T01:42:31;12.20;;;7.95;;
6434;SDS011;3250;42.694;23.278;2022-09-09T01:44:57;14.60;;;9.07;;
6434;SDS011;3250;42.694;23.278;2022-09-09T01:47:22;14.93;;;9.05;;
6434;SDS011;3250;42.694;23.278;2022-09-09T01:49:48;10.73;;;7.93;;
6434;SDS011;3250;42.694;23.278;2022-09-09T01:52:13;10.90;;;7.82;;
6434;SDS011;3250;42.694;23.278;2022-09-09T01:54:38;12.82;;;8.35;;
6434;SDS011;3250;42.694;23.278;2022-09-09T02:02:26;20.38;;;9.80;;
6434;SDS011;3250;42.694;23.278;2022-09-09T02:05:11;13.10;;;7.70;;
6434;SDS011;3250;42.694;23.278;2022-09-09T02:07:54;20.88;;;13.68;;
6434;SDS011;3250;42.694;23.278;2022-09-09T02:13:18;18.35;;;11.82;;
6434;SDS011;3250;42.694;23.278;2022-09-09T02:18:19;31.48;;;17.27;;
6434;SDS011;3250;42.694;23.278;2022-09-09T02:21:09;21.92;;;12.43;;
6434;SDS011;3250;42.694;23.278;2022-09-09T02:23:37;22.02;;;12.68;;
6434;SDS011;3250;42.694;23.278;2022-09-09T02:26:04;16.48;;;10.15;;
6434;SDS011;3250;42.694;23.278;2022-09-09T02:28:32;13.52;;;8.57;;
6434;SDS011;3250;42.694;23.278;2022-09-09T02:30:59;16.63;;;10.65;;
6434;SDS011;3250;42.694;23.278;2022-09-09T02:33:27;14.75;;;8.68;;
6434;SDS011;3250;42.694;23.278;2022-09-09T02:35:59;10.75;;;7.90;;
6434;SDS011;3250;42.694;23.278;2022-09-09T02:38:28;9.68;;;7.82;;
6434;SDS011;3250;42.694;23.278;2022-09-09T02:40:57;14.18;;;8.05;;
6434;SDS011;3250;42.694;23.278;2022-09-09T02:43:23;16.48;;;9.52;;
6434;SDS011;3250;42.694;23.278;2022-09-09T02:46:36;14.70;;;8.80;;
6434;SDS011;3250;42.694;23.278;2022-09-09T02:48:52;13.02;;;8.40;;
6434;SDS011;3250;42.694;23.278;2022-09-09T02:54:10;34.47;;;21.02;;
6434;SDS011;3250;42.694;23.278;2022-09-09T02:56:47;31.48;;;19.90;;
6434;SDS011;3250;42.694;23.278;2022-09-09T02:59:16;22.42;;;12.20;;
6434;SDS011;3250;42.694;23.278;2022-09-09T03:01:42;17.08;;;9.48;;
6434;SDS011;3250;42.694;23.278;2022-09-09T03:04:09;27.85;;;15.35;;
6434;SDS011;3250;42.694;23.278;2022-09-09T03:06:34;22.33;;;13.60;;
6434;SDS011;3250;42.694;23.278;2022-09-09T03:09:00;18.50;;;13.57;;
6434;SDS011;3250;42.694;23.278;2022-09-09T03:11:27;22.98;;;13.00;;
6434;SDS011;3250;42.694;23.278;2022-09-09T03:13:53;19.13;;;9.27;;
6434;SDS011;3250;42.694;23.278;2022-09-09T03:16:21;26.52;;;10.82;;
6434;SDS011;3250;42.694;23.278;2022-09-09T03:18:49;16.13;;;9.02;;
6434;SDS011;3250;42.694;23.278;2022-09-09T03:21:15;14.25;;;9.32;;
6434;SDS011;3250;42.694;23.278;2022-09-09T03:23:40;16.48;;;9.55;;
6434;SDS011;3250;42.694;23.278;2022-09-09T03:26:06;21.05;;;12.48;;
6434;SDS011;3250;42.694;23.278;2022-09-09T03:28:32;34.22;;;20.08;;
6434;SDS011;3250;42.694;23.278;2022-09-09T03:31:04;16.30;;;10.48;;
6434;SDS011;3250;42.694;23.278;2022-09-09T03:33:31;32.30;;;20.65;;
6434;SDS011;3250;42.694;23.278;2022-09-09T03:35:57;23.98;;;13.55;;
6434;SDS011;3250;42.694;23.278;2022-09-09T03:38:23;13.48;;;9.25;;
6434;SDS011;3250;42.694;23.278;2022-09-09T03:40:49;25.40;;;11.77;;
6434;SDS011;3250;42.694;23.278;2022-09-09T03:43:24;19.67;;;10.68;;
6434;SDS011;3250;42.694;23.278;2022-09-09T03:45:50;15.93;;;10.30;;
6434;SDS011;3250;42.694;23.278;2022-09-09T03:48:16;21.63;;;13.18;;
6434;SDS011;3250;42.694;23.278;2022-09-09T03:50:45;21.38;;;14.02;;
6434;SDS011;3250;42.694;23.278;2022-09-09T03:53:11;23.42;;;13.23;;
6434;SDS011;3250;42.694;23.278;2022-09-09T03:55:37;17.38;;;10.98;;
6434;SDS011;3250;42.694;23.278;2022-09-09T03:58:03;19.92;;;10.30;;
6434;SDS011;3250;42.694;23.278;2022-09-09T04:00:28;17.05;;;11.80;;
6434;SDS011;3250;42.694;23.278;2022-09-09T04:02:55;23.15;;;12.30;;
6434;SDS011;3250;42.694;23.278;2022-09-09T04:05:21;23.63;;;12.15;;
6434;SDS011;3250;42.694;23.278;2022-09-09T04:07:47;24.02;;;12.55;;
6434;SDS011;3250;42.694;23.278;2022-09-09T04:10:12;21.55;;;13.25;;
6434;SDS011;3250;42.694;23.278;2022-09-09T04:12:38;22.25;;;13.38;;
6434;SDS011;3250;42.694;23.278;2022-09-09T04:15:04;22.88;;;12.75;;
6434;SDS011;3250;42.694;23.278;2022-09-09T04:17:29;22.27;;;12.85;;
6434;SDS011;3250;42.694;23.278;2022-09-09T04:19:55;18.17;;;11.60;;
6434;SDS011;3250;42.694;23.278;2022-09-09T04:22:22;16.67;;;10.77;;
6434;SDS011;3250;42.694;23.278;2022-09-09T04:24:47;16.60;;;9.73;;
6434;SDS011;3250;42.694;23.278;2022-09-09T04:27:12;20.25;;;10.55;;
6434;SDS011;3250;42.694;23.278;2022-09-09T04:29:38;18.58;;;11.75;;
6434;SDS011;3250;42.694;23.278;2022-09-09T04:32:03;18.77;;;10.80;;
6434;SDS011;3250;42.694;23.278;2022-09-09T04:34:29;16.95;;;10.00;;
6434;SDS011;3250;42.694;23.278;2022-09-09T04:36:56;19.95;;;11.07;;
6434;SDS011;3250;42.694;23.278;2022-09-09T04:39:21;16.00;;;9.05;;
6434;SDS011;3250;42.694;23.278;2022-09-09T04:41:47;20.55;;;10.77;;
6434;SDS011;3250;42.694;23.278;2022-09-09T04:44:13;23.27;;;9.95;;
6434;SDS011;3250;42.694;23.278;2022-09-09T04:46:39;14.40;;;9.13;;
6434;SDS011;3250;42.694;23.278;2022-09-09T04:49:06;16.13;;;9.50;;
6434;SDS011;3250;42.694;23.278;2022-09-09T04:51:31;15.18;;;9.00;;
6434;SDS011;3250;42.694;23.278;2022-09-09T04:53:57;17.27;;;9.50;;
6434;SDS011;3250;42.694;23.278;2022-09-09T04:56:22;18.75;;;9.93;;
6434;SDS011;3250;42.694;23.278;2022-09-09T04:58:48;16.67;;;8.65;;
6434;SDS011;3250;42.694;23.278;2022-09-09T05:01:17;13.45;;;8.68;;
6434;SDS011;3250;42.694;23.278;2022-09-09T05:03:45;18.38;;;8.35;;
6434;SDS011;3250;42.694;23.278;2022-09-09T05:06:12;18.63;;;7.57;;
6434;SDS011;3250;42.694;23.278;2022-09-09T05:08:41;17.27;;;8.48;;
6434;SDS011;3250;42.694;23.278;2022-09-09T05:11:18;39.20;;;8.88;;
6434;SDS011;3250;42.694;23.278;2022-09-09T05:13:55;9.75;;;7.13;;
6434;SDS011;3250;42.694;23.278;2022-09-09T05:16:21;37.72;;;16.73;;
6434;SDS011;3250;42.694;23.278;2022-09-09T05:18:47;22.42;;;9.00;;
6434;SDS011;3250;42.694;23.278;2022-09-09T05:21:16;23.67;;;13.23;;
6434;SDS011;3250;42.694;23.278;2022-09-09T05:23:44;14.15;;;7.43;;
6434;SDS011;3250;42.694;23.278;2022-09-09T05:26:11;17.40;;;7.63;;
6434;SDS011;3250;42.694;23.278;2022-09-09T05:28:39;19.73;;;10.75;;
6434;SDS011;3250;42.694;23.278;2022-09-09T05:31:06;18.42;;;10.35;;
6434;SDS011;3250;42.694;23.278;2022-09-09T05:33:33;22.52;;;11.55;;
6434;SDS011;3250;42.694;23.278;2022-09-09T05:36:03;19.48;;;10.10;;
6434;SDS011;3250;42.694;23.278;2022-09-09T05:38:31;17.00;;;8.43;;
6434;SDS011;3250;42.694;23.278;2022-09-09T05:40:58;12.68;;;8.93;;
6434;SDS011;3250;42.694;23.278;2022-09-09T05:43:24;16.88;;;8.55;;
6434;SDS011;3250;42.694;23.278;2022-09-09T05:46:03;17.90;;;8.38;;
6434;SDS011;3250;42.694;23.278;2022-09-09T05:48:31;11.65;;;7.65;;
6434;SDS011;3250;42.694;23.278;2022-09-09T05:50:57;15.90;;;8.20;;
6434;SDS011;3250;42.694;23.278;2022-09-09T05:53:24;17.15;;;8.13;;
6434;SDS011;3250;42.694;23.278;2022-09-09T05:55:50;15.85;;;8.88;;
6434;SDS011;3250;42.694;23.278;2022-09-09T05:58:15;16.15;;;8.45;;
6434;SDS011;3250;42.694;23.278;2022-09-09T06:00:41;14.35;;;7.40;;
6434;SDS011;3250;42.694;23.278;2022-09-09T06:03:09;17.58;;;7.88;;
6434;SDS011;3250;42.694;23.278;2022-09-09T06:05:36;12.10;;;7.65;;
6434;SDS011;3250;42.694;23.278;2022-09-09T06:08:02;11.48;;;7.45;;
6434;SDS011;3250;42.694;23.278;2022-09-09T06:10:28;12.65;;;7.75;;
6434;SDS011;3250;42.694;23.278;2022-09-09T06:12:53;14.27;;;8.65;;
6434;SDS011;3250;42.694;23.278;2022-09-09T06:15:19;19.48;;;8.85;;
6434;SDS011;3250;42.694;23.278;2022-09-09T06:17:44;10.13;;;7.72;;
6434;SDS011;3250;42.694;23.278;2022-09-09T06:20:10;8.43;;;6.80;;
6434;SDS011;3250;42.694;23.278;2022-09-09T06:22:38;14.25;;;7.18;;
6434;SDS011;3250;42.694;23.278;2022-09-09T06:25:05;19.40;;;6.90;;
6434;SDS011;3250;42.694;23.278;2022-09-09T06:27:31;12.05;;;7.18;;
6434;SDS011;3250;42.694;23.278;2022-09-09T06:29:56;13.95;;;7.50;;
6434;SDS011;3250;42.694;23.278;2022-09-09T06:32:21;12.98;;;7.18;;
6434;SDS011;3250;42.694;23.278;2022-09-09T06:34:47;14.57;;;10.27;;
6434;SDS011;3250;42.694;23.278;2022-09-09T06:37:14;26.67;;;15.43;;
6434;SDS011;3250;42.694;23.278;2022-09-09T06:39:39;13.88;;;9.63;;
6434;SDS011;3250;42.694;23.278;2022-09-09T06:42:05;14.55;;;6.57;;
6434;SDS011;3250;42.694;23.278;2022-09-09T06:44:31;17.05;;;7.63;;
6434;SDS011;3250;42.694;23.278;2022-09-09T06:46:58;12.90;;;7.53;;
6434;SDS011;3250;42.694;23.278;2022-09-09T06:49:23;19.88;;;7.03;;
6434;SDS011;3250;42.694;23.278;2022-09-09T06:51:49;8.38;;;6.65;;
6434;SDS011;3250;42.694;23.278;2022-09-09T06:54:14;9.57;;;6.57;;
6434;SDS011;3250;42.694;23.278;2022-09-09T06:56:40;9.93;;;6.72;;
6434;SDS011;3250;42.694;23.278;2022-09-09T06:59:10;17.35;;;7.10;;
6434;SDS011;3250;42.694;23.278;2022-09-09T07:01:41;10.60;;;7.18;;
6434;SDS011;3250;42.694;23.278;2022-09-09T07:04:16;13.23;;;7.22;;
6434;SDS011;3250;42.694;23.278;2022-09-09T07:06:43;10.15;;;6.88;;
6434;SDS011;3250;42.694;23.278;2022-09-09T07:09:11;10.63;;;7.15;;
6434;SDS011;3250;42.694;23.278;2022-09-09T07:11:39;15.93;;;8.00;;
6434;SDS011;3250;42.694;23.278;2022-09-09T07:14:07;11.30;;;6.57;;
6434;SDS011;3250;42.694;23.278;2022-09-09T07:16:32;10.38;;;7.15;;
6434;SDS011;3250;42.694;23.278;2022-09-09T07:19:02;15.13;;;7.18;;
6434;SDS011;3250;42.694;23.278;2022-09-09T07:21:28;11.80;;;7.30;;
6434;SDS011;3250;42.694;23.278;2022-09-09T07:23:55;11.52;;;7.40;;
6434;SDS011;3250;42.694;23.278;2022-09-09T07:26:22;10.20;;;7.78;;
6434;SDS011;3250;42.694;23.278;2022-09-09T07:28:49;10.50;;;7.82;;
6434;SDS011;3250;42.694;23.278;2022-09-09T07:33:42;10.30;;;7.13;;
6434;SDS011;3250;42.694;23.278;2022-09-09T07:36:30;11.73;;;7.18;;
6434;SDS011;3250;42.694;23.278;2022-09-09T07:38:58;10.02;;;6.72;;
6434;SDS011;3250;42.694;23.278;2022-09-09T07:41:27;11.50;;;6.72;;
6434;SDS011;3250;42.694;23.278;2022-09-09T07:44:04;9.43;;;6.53;;
6434;SDS011;3250;42.694;23.278;2022-09-09T07:46:34;12.43;;;7.18;;
6434;SDS011;3250;42.694;23.278;2022-09-09T07:49:00;9.18;;;5.90;;
6434;SDS011;3250;42.694;23.278;2022-09-09T07:51:31;10.68;;;6.45;;
6434;SDS011;3250;42.694;23.278;2022-09-09T07:53:59;12.55;;;6.30;;
6434;SDS011;3250;42.694;23.278;2022-09-09T07:56:27;11.55;;;5.78;;
6434;SDS011;3250;42.694;23.278;2022-09-09T07:58:55;13.27;;;5.82;;
6434;SDS011;3250;42.694;23.278;2022-09-09T08:01:29;6.90;;;5.38;;
6434;SDS011;3250;42.694;23.278;2022-09-09T08:04:04;8.65;;;6.38;;
6434;SDS011;3250;42.694;23.278;2022-09-09T08:06:36;9.48;;;5.72;;
6434;SDS011;3250;42.694;23.278;2022-09-09T08:09:04;10.68;;;5.97;;
6434;SDS011;3250;42.694;23.278;2022-09-09T08:11:30;13.00;;;6.00;;
6434;SDS011;3250;42.694;23.278;2022-09-09T08:13:55;23.98;;;6.47;;
6434;SDS011;3250;42.694;23.278;2022-09-09T08:16:25;7.95;;;5.47;;
6434;SDS011;3250;42.694;23.278;2022-09-09T08:18:52;11.18;;;5.63;;
6434;SDS011;3250;42.694;23.278;2022-09-09T08:21:23;8.75;;;5.20;;
6434;SDS011;3250;42.694;23.278;2022-09-09T08:23:50;11.75;;;6.00;;
6434;SDS011;3250;42.694;23.278;2022-09-09T08:28:56;6.63;;;5.03;;
6434;SDS011;3250;42.694;23.278;2022-09-09T08:31:24;10.52;;;5.18;;
6434;SDS011;3250;42.694;23.278;2022-09-09T08:33:58;9.13;;;5.13;;
6434;SDS011;3250;42.694;23.278;2022-09-09T08:36:31;10.82;;;4.85;;
6434;SDS011;3250;42.694;23.278;2022-09-09T08:39:02;8.70;;;4.68;;
6434;SDS011;3250;42.694;23.278;2022-09-09T08:41:39;10.07;;;4.28;;
6434;SDS011;3250;42.694;23.278;2022-09-09T08:52:27;7.15;;;4.60;;
6434;SDS011;3250;42.694;23.278;2022-09-09T08:55:11;10.30;;;5.90;;
6434;SDS011;3250;42.694;23.278;2022-09-09T09:06:06;11.38;;;5.78;;
6434;SDS011;3250;42.694;23.278;2022-09-09T09:08:39;8.20;;;5.60;;
6434;SDS011;3250;42.694;23.278;2022-09-09T09:11:12;7.97;;;5.25;;
6434;SDS011;3250;42.694;23.278;2022-09-09T09:16:49;11.65;;;5.60;;
6434;SDS011;3250;42.694;23.278;2022-09-09T09:19:19;8.45;;;6.07;;
6434;SDS011;3250;42.694;23.278;2022-09-09T09:21:50;12.50;;;5.43;;
6434;SDS011;3250;42.694;23.278;2022-09-09T09:24:42;12.65;;;5.47;;
6434;SDS011;3250;42.694;23.278;2022-09-09T09:27:21;11.82;;;5.30;;
6434;SDS011;3250;42.694;23.278;2022-09-09T09:29:49;13.93;;;5.72;;
6434;SDS011;3250;42.694;23.278;2022-09-09T09:32:17;12.18;;;5.53;;
6434;SDS011;3250;42.694;23.278;2022-09-09T09:34:52;8.30;;;4.80;;
6434;SDS011;3250;42.694;23.278;2022-09-09T09:37:31;10.68;;;4.68;;
6434;SDS011;3250;42.694;23.278;2022-09-09T09:40:13;10.13;;;5.70;;
6434;SDS011;3250;42.694;23.278;2022-09-09T09:42:53;10.60;;;4.97;;
6434;SDS011;3250;42.694;23.278;2022-09-09T09:48:10;7.85;;;4.95;;
6434;SDS011;3250;42.694;23.278;2022-09-09T09:50:48;12.73;;;5.28;;
6434;SDS011;3250;42.694;23.278;2022-09-09T09:53:32;8.75;;;5.10;;
6434;SDS011;3250;42.694;23.278;2022-09-09T09:56:00;9.23;;;4.75;;
6434;SDS011;3250;42.694;23.278;2022-09-09T09:58:29;14.18;;;5.13;;
6434;SDS011;3250;42.694;23.278;2022-09-09T10:00:57;12.23;;;5.00;;
6434;SDS011;3250;42.694;23.278;2022-09-09T10:03:25;10.63;;;4.82;;
6434;SDS011;3250;42.694;23.278;2022-09-09T10:05:54;7.07;;;4.55;;
6434;SDS011;3250;42.694;23.278;2022-09-09T10:08:21;9.38;;;4.93;;
6434;SDS011;3250;42.694;23.278;2022-09-09T10:26:49;8.35;;;5.72;;
6434;SDS011;3250;42.694;23.278;2022-09-09T10:34:58;16.27;;;5.03;;
6434;SDS011;3250;42.694;23.278;2022-09-09T10:37:46;11.15;;;5.35;;
6434;SDS011;3250;42.694;23.278;2022-09-09T10:40:33;6.28;;;4.82;;
6434;SDS011;3250;42.694;23.278;2022-09-09T10:43:01;8.85;;;5.32;;
6434;SDS011;3250;42.694;23.278;2022-09-09T10:56:16;9.93;;;5.78;;
6434;SDS011;3250;42.694;23.278;2022-09-09T10:58:59;10.82;;;6.13;;
6434;SDS011;3250;42.694;23.278;2022-09-09T11:01:36;9.38;;;6.20;;
6434;SDS011;3250;42.694;23.278;2022-09-09T11:04:11;13.48;;;6.72;;
6434;SDS011;3250;42.694;23.278;2022-09-09T11:06:52;14.07;;;6.22;;
6434;SDS011;3250;42.694;23.278;2022-09-09T11:09:27;14.50;;;6.35;;
6434;SDS011;3250;42.694;23.278;2022-09-09T11:11:57;15.10;;;5.75;;
6434;SDS011;3250;42.694;23.278;2022-09-09T11:14:37;11.00;;;5.97;;
6434;SDS011;3250;42.694;23.278;2022-09-09T11:17:22;11.85;;;6.15;;
6434;SDS011;3250;42.694;23.278;2022-09-09T11:19:52;14.35;;;5.82;;
6434;SDS011;3250;42.694;23.278;2022-09-09T11:39:07;13.07;;;5.50;;
6434;SDS011;3250;42.694;23.278;2022-09-09T11:44:48;8.77;;;5.90;;
6434;SDS011;3250;42.694;23.278;2022-09-09T11:49:46;10.80;;;5.40;;
6434;SDS011;3250;42.694;23.278;2022-09-09T11:52:35;15.73;;;5.88;;
6434;SDS011;3250;42.694;23.278;2022-09-09T11:55:11;15.10;;;5.90;;
6434;SDS011;3250;42.694;23.278;2022-09-09T11:58:37;12.57;;;6.50;;
6434;SDS011;3250;42.694;23.278;2022-09-09T12:06:18;10.52;;;5.65;;
6434;SDS011;3250;42.694;23.278;2022-09-09T12:08:52;8.32;;;5.70;;
6434;SDS011;3250;42.694;23.278;2022-09-09T12:11:28;11.15;;;6.10;;
6434;SDS011;3250;42.694;23.278;2022-09-09T12:13:57;10.45;;;6.13;;
6434;SDS011;3250;42.694;23.278;2022-09-09T12:16:36;12.15;;;5.68;;
6434;SDS011;3250;42.694;23.278;2022-09-09T12:19:24;11.32;;;6.15;;
6434;SDS011;3250;42.694;23.278;2022-09-09T12:22:01;11.15;;;5.90;;
6434;SDS011;3250;42.694;23.278;2022-09-09T12:24:46;9.85;;;5.22;;
6434;SDS011;3250;42.694;23.278;2022-09-09T12:29:55;9.55;;;6.30;;
6434;SDS011;3250;42.694;23.278;2022-09-09T12:32:30;10.65;;;5.78;;
6434;SDS011;3250;42.694;23.278;2022-09-09T12:34:59;14.18;;;6.43;;
6434;SDS011;3250;42.694;23.278;2022-09-09T12:37:32;8.45;;;5.32;;
6434;SDS011;3250;42.694;23.278;2022-09-09T12:40:04;11.40;;;6.22;;
6434;SDS011;3250;42.694;23.278;2022-09-09T12:42:42;10.85;;;5.72;;
6434;SDS011;3250;42.694;23.278;2022-09-09T12:45:18;12.35;;;6.07;;
6434;SDS011;3250;42.694;23.278;2022-09-09T12:50:35;19.50;;;6.75;;
6434;SDS011;3250;42.694;23.278;2022-09-09T12:53:11;13.20;;;5.70;;
6434;SDS011;3250;42.694;23.278;2022-09-09T12:55:51;8.20;;;3.95;;
6434;SDS011;3250;42.694;23.278;2022-09-09T12:58:19;13.07;;;5.18;;
6434;SDS011;3250;42.694;23.278;2022-09-09T13:00:49;14.68;;;4.60;;
6434;SDS011;3250;42.694;23.278;2022-09-09T13:03:21;11.02;;;4.28;;
6434;SDS011;3250;42.694;23.278;2022-09-09T13:05:47;16.65;;;4.30;;
6434;SDS011;3250;42.694;23.278;2022-09-09T13:08:15;7.97;;;4.47;;
6434;SDS011;3250;42.694;23.278;2022-09-09T13:10:50;7.05;;;4.07;;
6434;SDS011;3250;42.694;23.278;2022-09-09T13:13:29;11.35;;;4.28;;
6434;SDS011;3250;42.694;23.278;2022-09-09T13:15:56;7.57;;;4.20;;
6434;SDS011;3250;42.694;23.278;2022-09-09T13:18:42;11.88;;;4.68;;
6434;SDS011;3250;42.694;23.278;2022-09-09T13:21:08;13.05;;;4.93;;
6434;SDS011;3250;42.694;23.278;2022-09-09T13:23:34;8.32;;;4.35;;
6434;SDS011;3250;42.694;23.278;2022-09-09T13:26:06;7.28;;;4.50;;
6434;SDS011;3250;42.694;23.278;2022-09-09T13:28:46;6.25;;;3.67;;
6434;SDS011;3250;42.694;23.278;2022-09-09T13:34:40;10.13;;;5.03;;
6434;SDS011;3250;42.694;23.278;2022-09-09T13:37:03;6.72;;;4.20;;
6434;SDS011;3250;42.694;23.278;2022-09-09T13:39:34;9.02;;;4.20;;
6434;SDS011;3250;42.694;23.278;2022-09-09T13:42:04;9.00;;;4.10;;
6434;SDS011;3250;42.694;23.278;2022-09-09T13:44:47;8.20;;;3.90;;
6434;SDS011;3250;42.694;23.278;2022-09-09T13:47:26;6.88;;;4.50;;
6434;SDS011;3250;42.694;23.278;2022-09-09T13:49:56;14.75;;;4.63;;
6434;SDS011;3250;42.694;23.278;2022-09-09T13:52:21;10.98;;;4.75;;
6434;SDS011;3250;42.694;23.278;2022-09-09T13:54:50;11.75;;;4.60;;
6434;SDS011;3250;42.694;23.278;2022-09-09T13:59:47;10.80;;;4.63;;
6434;SDS011;3250;42.694;23.278;2022-09-09T14:02:12;17.30;;;5.15;;
6434;SDS011;3250;42.694;23.278;2022-09-09T14:04:41;12.15;;;4.32;;
6434;SDS011;3250;42.694;23.278;2022-09-09T14:07:11;7.93;;;4.35;;
6434;SDS011;3250;42.694;23.278;2022-09-09T14:09:39;9.52;;;4.38;;
6434;SDS011;3250;42.694;23.278;2022-09-09T14:12:05;10.65;;;4.35;;
6434;SDS011;3250;42.694;23.278;2022-09-09T14:14:34;14.35;;;4.38;;
6434;SDS011;3250;42.694;23.278;2022-09-09T14:16:59;16.00;;;4.22;;
6434;SDS011;3250;42.694;23.278;2022-09-09T14:19:25;13.93;;;4.40;;
6434;SDS011;3250;42.694;23.278;2022-09-09T14:21:51;13.45;;;4.15;;
6434;SDS011;3250;42.694;23.278;2022-09-09T14:24:16;7.20;;;3.88;;
6434;SDS011;3250;42.694;23.278;2022-09-09T14:26:42;15.02;;;4.25;;
6434;SDS011;3250;42.694;23.278;2022-09-09T14:29:08;11.15;;;4.20;;
6434;SDS011;3250;42.694;23.278;2022-09-09T14:31:33;8.32;;;3.85;;
6434;SDS011;3250;42.694;23.278;2022-09-09T14:33:59;13.52;;;5.00;;
6434;SDS011;3250;42.694;23.278;2022-09-09T14:36:24;13.15;;;5.10;;
6434;SDS011;3250;42.694;23.278;2022-09-09T14:38:50;10.95;;;4.90;;
6434;SDS011;3250;42.694;23.278;2022-09-09T14:41:17;9.65;;;4.80;;
6434;SDS011;3250;42.694;23.278;2022-09-09T14:43:45;20.23;;;5.78;;
6434;SDS011;3250;42.694;23.278;2022-09-09T14:46:15;15.93;;;5.63;;
6434;SDS011;3250;42.694;23.278;2022-09-09T14:48:42;14.35;;;6.00;;
6434;SDS011;3250;42.694;23.278;2022-09-09T14:51:10;12.93;;;5.10;;
6434;SDS011;3250;42.694;23.278;2022-09-09T14:53:38;10.40;;;5.47;;
6434;SDS011;3250;42.694;23.278;2022-09-09T14:56:08;11.18;;;5.65;;
6434;SDS011;3250;42.694;23.278;2022-09-09T14:58:42;10.55;;;5.72;;
6434;SDS011;3250;42.694;23.278;2022-09-09T15:01:09;13.68;;;6.05;;
6434;SDS011;3250;42.694;23.278;2022-09-09T15:03:39;10.55;;;5.22;;
6434;SDS011;3250;42.694;23.278;2022-09-09T15:06:10;11.85;;;5.38;;
6434;SDS011;3250;42.694;23.278;2022-09-09T15:08:37;8.63;;;5.13;;
6434;SDS011;3250;42.694;23.278;2022-09-09T15:11:05;10.20;;;5.50;;
6434;SDS011;3250;42.694;23.278;2022-09-09T15:13:34;12.18;;;5.60;;
6434;SDS011;3250;42.694;23.278;2022-09-09T15:16:05;9.25;;;5.25;;
6434;SDS011;3250;42.694;23.278;2022-09-09T15:18:32;14.38;;;5.18;;
6434;SDS011;3250;42.694;23.278;2022-09-09T15:20:58;10.88;;;6.03;;
6434;SDS011;3250;42.694;23.278;2022-09-09T15:23:36;20.70;;;6.57;;
6434;SDS011;3250;42.694;23.278;2022-09-09T15:26:02;20.95;;;8.55;;
6434;SDS011;3250;42.694;23.278;2022-09-09T15:28:29;17.25;;;7.07;;
6434;SDS011;3250;42.694;23.278;2022-09-09T15:30:57;17.30;;;5.43;;
6434;SDS011;3250;42.694;23.278;2022-09-09T15:33:24;22.50;;;5.82;;
6434;SDS011;3250;42.694;23.278;2022-09-09T15:35:50;11.80;;;6.13;;
6434;SDS011;3250;42.694;23.278;2022-09-09T15:38:16;18.83;;;9.35;;
6434;SDS011;3250;42.694;23.278;2022-09-09T15:40:42;11.43;;;6.28;;
6434;SDS011;3250;42.694;23.278;2022-09-09T15:43:08;17.88;;;5.60;;
6434;SDS011;3250;42.694;23.278;2022-09-09T15:45:36;14.38;;;5.68;;
6434;SDS011;3250;42.694;23.278;2022-09-09T15:48:02;9.85;;;5.35;;
6434;SDS011;3250;42.694;23.278;2022-09-09T15:50:28;12.18;;;5.65;;
6434;SDS011;3250;42.694;23.278;2022-09-09T15:53:14;16.73;;;7.10;;
6434;SDS011;3250;42.694;23.278;2022-09-09T15:55:39;23.20;;;6.18;;
6434;SDS011;3250;42.694;23.278;2022-09-09T15:58:05;9.88;;;5.85;;
6434;SDS011;3250;42.694;23.278;2022-09-09T16:00:32;16.98;;;6.30;;
6434;SDS011;3250;42.694;23.278;2022-09-09T16:03:01;26.73;;;6.78;;
6434;SDS011;3250;42.694;23.278;2022-09-09T16:05:26;9.40;;;6.00;;
6434;SDS011;3250;42.694;23.278;2022-09-09T16:07:52;12.82;;;5.55;;
6434;SDS011;3250;42.694;23.278;2022-09-09T16:10:18;15.52;;;7.07;;
6434;SDS011;3250;42.694;23.278;2022-09-09T16:12:46;16.63;;;8.00;;
6434;SDS011;3250;42.694;23.278;2022-09-09T16:15:14;20.02;;;9.30;;
6434;SDS011;3250;42.694;23.278;2022-09-09T16:17:39;25.23;;;10.38;;
6434;SDS011;3250;42.694;23.278;2022-09-09T16:20:05;14.07;;;7.57;;
6434;SDS011;3250;42.694;23.278;2022-09-09T16:22:33;19.55;;;8.57;;
6434;SDS011;3250;42.694;23.278;2022-09-09T16:24:58;29.02;;;12.60;;
6434;SDS011;3250;42.694;23.278;2022-09-09T16:27:24;23.60;;;10.32;;
6434;SDS011;3250;42.694;23.278;2022-09-09T16:29:49;25.67;;;9.45;;
6434;SDS011;3250;42.694;23.278;2022-09-09T16:32:15;26.85;;;11.10;;
6434;SDS011;3250;42.694;23.278;2022-09-09T16:34:41;22.95;;;10.68;;
6434;SDS011;3250;42.694;23.278;2022-09-09T16:37:07;45.40;;;17.92;;
6434;SDS011;3250;42.694;23.278;2022-09-09T16:39:33;37.78;;;10.88;;
6434;SDS011;3250;42.694;23.278;2022-09-09T16:41:58;29.52;;;11.68;;
6434;SDS011;3250;42.694;23.278;2022-09-09T16:44:24;36.65;;;11.10;;
6434;SDS011;3250;42.694;23.278;2022-09-09T16:46:51;43.30;;;11.20;;
6434;SDS011;3250;42.694;23.278;2022-09-09T16:49:19;34.80;;;9.27;;
6434;SDS011;3250;42.694;23.278;2022-09-09T16:51:46;21.42;;;8.73;;
6434;SDS011;3250;42.694;23.278;2022-09-09T16:54:13;25.73;;;8.88;;
6434;SDS011;3250;42.694;23.278;2022-09-09T16:56:40;27.08;;;10.10;;
6434;SDS011;3250;42.694;23.278;2022-09-09T16:59:09;30.33;;;10.43;;
6434;SDS011;3250;42.694;23.278;2022-09-09T17:01:45;30.90;;;9.10;;
6434;SDS011;3250;42.694;23.278;2022-09-09T17:04:13;17.00;;;7.10;;
6434;SDS011;3250;42.694;23.278;2022-09-09T17:06:45;17.55;;;7.57;;
6434;SDS011;3250;42.694;23.278;2022-09-09T17:09:12;21.15;;;6.60;;
6434;SDS011;3250;42.694;23.278;2022-09-09T17:11:38;15.60;;;6.80;;
6434;SDS011;3250;42.694;23.278;2022-09-09T17:14:05;20.35;;;7.00;;
6434;SDS011;3250;42.694;23.278;2022-09-09T17:16:32;24.25;;;9.32;;
6434;SDS011;3250;42.694;23.278;2022-09-09T17:18:59;32.83;;;10.23;;
6434;SDS011;3250;42.694;23.278;2022-09-09T17:21:26;37.53;;;10.65;;
6434;SDS011;3250;42.694;23.278;2022-09-09T17:23:53;26.73;;;10.18;;
6434;SDS011;3250;42.694;23.278;2022-09-09T17:26:20;21.40;;;9.38;;
6434;SDS011;3250;42.694;23.278;2022-09-09T17:28:47;37.70;;;7.80;;
6434;SDS011;3250;42.694;23.278;2022-09-09T17:31:14;24.30;;;9.10;;
6434;SDS011;3250;42.694;23.278;2022-09-09T17:33:42;26.60;;;9.63;;